Time,TemperatureF,DewpointF,PressureIn,WindDirection,WindDirectionDegrees,WindSpeedMPH,WindSpeedGustMPH,Humidity,HourlyPrecipIn,Conditions,Clouds,dailyrainin,SoftwareType,DateUTC
2013-05-29 00:02:00,65.0,63.0,30.21,SE,125,0.0,0.0,94,0.00,,,0.00,,2013-05-29 04:02:00,
2013-05-29 00:13:00,65.0,63.0,30.21,SE,125,0.0,0.0,94,0.00,,,0.00,,2013-05-29 04:13:00,
2013-05-29 00:23:00,65.0,63.0,30.21,SE,125,0.0,0.0,94,0.00,,,0.00,,2013-05-29 04:23:00,
2013-05-29 00:33:00,65.0,63.0,30.21,SE,125,0.0,0.0,94,0.00,,,0.00,,2013-05-29 04:33:00,
2013-05-29 00:42:00,65.0,63.0,30.21,SE,125,0.0,0.0,94,0.00,,,0.00,,2013-05-29 04:42:00,
2013-05-29 07:22:00,62.0,61.0,30.20,SE,124,0.0,0.0,98,0.00,,,0.00,,2013-05-29 11:22:00,
2013-05-29 07:32:00,63.0,62.0,30.21,SE,124,0.0,0.0,98,0.00,,,0.00,,2013-05-29 11:32:00,
2013-05-29 07:42:00,63.0,62.0,30.21,SE,124,0.0,0.0,98,0.00,,,0.00,,2013-05-29 11:42:00,
2013-05-29 07:52:00,65.0,64.0,30.21,SE,124,0.0,1.0,98,0.00,,,0.00,,2013-05-29 11:52:00,
2013-05-29 08:01:00,65.0,64.0,30.22,SE,124,0.0,0.0,97,0.00,,,0.00,,2013-05-29 12:01:00,
2013-05-29 08:11:00,65.0,64.0,30.22,SE,124,0.0,0.0,97,0.00,,,0.00,,2013-05-29 12:11:00,
2013-05-29 08:22:00,67.0,66.0,30.22,SE,124,0.0,1.0,97,0.00,,,0.00,,2013-05-29 12:22:00,
2013-05-29 08:32:00,70.0,68.0,30.22,SE,138,0.0,0.0,94,0.00,,,0.00,,2013-05-29 12:32:00,
2013-05-29 08:42:00,70.0,68.0,30.22,SE,138,0.0,0.0,94,0.00,,,0.00,,2013-05-29 12:42:00,
2013-05-29 08:52:00,73.0,70.0,30.22,ESE,105,1.0,2.0,89,0.00,,,0.00,,2013-05-29 12:52:00,
2013-05-29 09:02:00,75.0,70.0,30.22,NE,55,1.0,3.0,85,0.00,,,0.00,,2013-05-29 13:02:00,
2013-05-29 09:11:00,75.0,70.0,30.22,NE,55,1.0,3.0,85,0.00,,,0.00,,2013-05-29 13:11:00,
2013-05-29 09:22:00,77.0,71.0,30.22,ESE,108,1.0,4.0,81,0.00,,,0.00,,2013-05-29 13:22:00,
2013-05-29 09:32:00,78.0,69.0,30.22,East,86,4.0,7.0,74,0.00,,,0.00,,2013-05-29 13:32:00,
2013-05-29 09:42:00,78.0,69.0,30.22,East,86,4.0,7.0,74,0.00,,,0.00,,2013-05-29 13:42:00,
2013-05-29 09:53:00,78.0,69.0,30.22,East,91,4.0,6.0,73,0.00,,,0.00,,2013-05-29 13:53:00,
2013-05-29 10:02:00,78.0,69.0,30.22,SE,136,2.0,7.0,74,0.00,,,0.00,,2013-05-29 14:02:00,
2013-05-29 10:11:00,78.0,69.0,30.22,SE,136,2.0,7.0,74,0.00,,,0.00,,2013-05-29 14:11:00,
2013-05-29 10:21:00,80.0,67.0,30.23,SSE,148,3.0,8.0,65,0.00,,,0.00,,2013-05-29 14:21:00,
2013-05-29 10:32:00,80.0,66.0,30.23,ENE,72,3.0,7.0,63,0.00,,,0.00,,2013-05-29 14:32:00,
2013-05-29 10:42:00,80.0,66.0,30.23,ENE,72,3.0,7.0,63,0.00,,,0.00,,2013-05-29 14:42:00,
2013-05-29 10:52:00,79.0,66.0,30.23,ESE,104,5.0,10.0,64,0.00,,,0.00,,2013-05-29 14:52:00,
2013-05-29 11:01:00,80.0,67.0,30.23,SE,129,3.0,9.0,64,0.00,,,0.00,,2013-05-29 15:01:00,
2013-05-29 11:11:00,80.0,65.0,30.24,East,94,3.0,11.0,61,0.00,,,0.00,,2013-05-29 15:11:00,
2013-05-29 11:21:00,80.0,65.0,30.24,East,94,3.0,11.0,61,0.00,,,0.00,,2013-05-29 15:21:00,
2013-05-29 11:33:00,80.0,66.0,30.24,ENE,65,2.0,7.0,62,0.00,,,0.00,,2013-05-29 15:33:00,
2013-05-29 11:42:00,80.0,66.0,30.24,ENE,65,2.0,7.0,62,0.00,,,0.00,,2013-05-29 15:42:00,
2013-05-29 11:53:00,82.0,67.0,30.24,East,86,2.0,7.0,61,0.00,,,0.00,,2013-05-29 15:53:00,
2013-05-29 12:03:00,82.0,67.0,30.24,South,178,2.0,4.0,60,0.00,,,0.00,,2013-05-29 16:03:00,
2013-05-29 12:12:00,82.0,67.0,30.24,South,178,2.0,4.0,60,0.00,,,0.00,,2013-05-29 16:12:00,
2013-05-29 12:22:00,83.0,66.0,30.24,East,86,2.0,5.0,56,0.00,,,0.00,,2013-05-29 16:22:00,
2013-05-29 12:32:00,83.0,65.0,30.24,ESE,118,4.0,10.0,54,0.00,,,0.00,,2013-05-29 16:32:00,
2013-05-29 12:42:00,83.0,65.0,30.24,ESE,118,4.0,10.0,54,0.00,,,0.00,,2013-05-29 16:42:00,
2013-05-29 12:52:00,83.0,65.0,30.24,ENE,70,3.0,9.0,55,0.00,,,0.00,,2013-05-29 16:52:00,
2013-05-29 13:02:00,84.0,65.0,30.23,ESE,120,3.0,9.0,53,0.00,,,0.00,,2013-05-29 17:02:00,
2013-05-29 13:12:00,84.0,65.0,30.23,ESE,120,3.0,9.0,53,0.00,,,0.00,,2013-05-29 17:12:00,
2013-05-29 13:22:00,83.0,65.0,30.23,ESE,123,4.0,7.0,55,0.00,,,0.00,,2013-05-29 17:22:00,
2013-05-29 13:32:00,82.0,67.0,30.23,SE,131,3.0,9.0,60,0.00,,,0.00,,2013-05-29 17:32:00,
2013-05-29 13:42:00,82.0,67.0,30.23,SE,131,3.0,9.0,60,0.00,,,0.00,,2013-05-29 17:42:00,
2013-05-29 13:52:00,82.0,67.0,30.22,ENE,57,3.0,6.0,61,0.00,,,0.00,,2013-05-29 17:52:00,
2013-05-29 14:01:00,82.0,66.0,30.22,ENE,78,3.0,7.0,59,0.00,,,0.00,,2013-05-29 18:01:00,
2013-05-29 14:13:00,83.0,68.0,30.22,ESE,110,3.0,7.0,60,0.00,,,0.00,,2013-05-29 18:13:00,
2013-05-29 14:22:00,83.0,68.0,30.22,ESE,110,3.0,7.0,60,0.00,,,0.00,,2013-05-29 18:22:00,
2013-05-29 14:32:00,83.0,67.0,30.21,East,79,4.0,7.0,59,0.00,,,0.00,,2013-05-29 18:32:00,
2013-05-29 14:42:00,83.0,67.0,30.21,East,79,4.0,7.0,59,0.00,,,0.00,,2013-05-29 18:42:00,
2013-05-29 14:52:00,83.0,68.0,30.21,ENE,72,3.0,10.0,60,0.00,,,0.00,,2013-05-29 18:52:00,
2013-05-29 15:02:00,83.0,67.0,30.21,East,94,5.0,10.0,58,0.00,,,0.00,,2013-05-29 19:02:00,
2013-05-29 15:11:00,83.0,67.0,30.21,East,94,5.0,10.0,58,0.00,,,0.00,,2013-05-29 19:11:00,
2013-05-29 15:22:00,83.0,67.0,30.21,East,94,5.0,10.0,58,0.00,,,0.00,,2013-05-29 19:22:00,
2013-05-29 15:32:00,83.0,68.0,30.20,ESE,113,4.0,9.0,61,0.00,,,0.00,,2013-05-29 19:32:00,
2013-05-29 15:44:00,83.0,69.0,30.19,SE,137,5.0,9.0,63,0.00,,,0.00,,2013-05-29 19:44:00,
2013-05-29 15:53:00,83.0,69.0,30.19,SE,137,5.0,9.0,63,0.00,,,0.00,,2013-05-29 19:53:00,
2013-05-29 16:03:00,83.0,68.0,30.19,East,82,3.0,6.0,60,0.00,,,0.00,,2013-05-29 20:03:00,
2013-05-29 16:11:00,83.0,68.0,30.19,East,82,3.0,6.0,60,0.00,,,0.00,,2013-05-29 20:11:00,
2013-05-29 16:23:00,83.0,68.0,30.19,ESE,111,6.0,9.0,61,0.00,,,0.00,,2013-05-29 20:23:00,
2013-05-29 16:33:00,82.0,68.0,30.19,ENE,76,4.0,7.0,62,0.00,,,0.00,,2013-05-29 20:33:00,
2013-05-29 16:42:00,82.0,68.0,30.19,ENE,76,4.0,7.0,62,0.00,,,0.00,,2013-05-29 20:42:00,
2013-05-29 16:53:00,82.0,68.0,30.19,ESE,103,2.0,9.0,62,0.00,,,0.00,,2013-05-29 20:53:00,
2013-05-29 17:02:00,82.0,68.0,30.19,ENE,69,3.0,8.0,62,0.00,,,0.00,,2013-05-29 21:02:00,
2013-05-29 17:12:00,82.0,68.0,30.19,ENE,69,3.0,8.0,62,0.00,,,0.00,,2013-05-29 21:12:00,
2013-05-29 17:22:00,82.0,67.0,30.19,South,176,4.0,10.0,60,0.00,,,0.00,,2013-05-29 21:22:00,
2013-05-29 17:33:00,81.0,66.0,30.19,ENE,65,3.0,8.0,60,0.00,,,0.00,,2013-05-29 21:33:00,
2013-05-29 17:43:00,81.0,66.0,30.19,ENE,65,3.0,8.0,60,0.00,,,0.00,,2013-05-29 21:43:00,
2013-05-29 17:53:00,82.0,67.0,30.18,ESE,110,3.0,10.0,61,0.00,,,0.00,,2013-05-29 21:53:00,
2013-05-29 18:03:00,82.0,67.0,30.18,ENE,74,1.0,6.0,61,0.00,,,0.00,,2013-05-29 22:03:00,
2013-05-29 18:12:00,82.0,67.0,30.18,ENE,74,1.0,6.0,61,0.00,,,0.00,,2013-05-29 22:12:00,
2013-05-29 18:23:00,81.0,66.0,30.18,ENE,76,4.0,10.0,61,0.00,,,0.00,,2013-05-29 22:23:00,
2013-05-29 18:33:00,81.0,67.0,30.18,SE,134,2.0,7.0,62,0.00,,,0.00,,2013-05-29 22:33:00,
2013-05-29 18:42:00,80.0,66.0,30.18,East,91,3.0,10.0,63,0.00,,,0.00,,2013-05-29 22:42:00,
2013-05-29 18:53:00,80.0,66.0,30.18,East,91,3.0,10.0,63,0.00,,,0.00,,2013-05-29 22:53:00,
2013-05-29 19:02:00,78.0,67.0,30.18,East,84,3.0,5.0,68,0.00,,,0.00,,2013-05-29 23:02:00,
2013-05-29 19:12:00,78.0,67.0,30.18,East,84,3.0,5.0,68,0.00,,,0.00,,2013-05-29 23:12:00,
2013-05-29 19:22:00,78.0,67.0,30.18,ESE,106,4.0,6.0,70,0.00,,,0.00,,2013-05-29 23:22:00,
2013-05-29 19:33:00,78.0,67.0,30.18,East,94,3.0,7.0,70,0.00,,,0.00,,2013-05-29 23:33:00,
2013-05-29 19:42:00,77.0,67.0,30.18,ENE,70,2.0,9.0,71,0.00,,,0.00,,2013-05-29 23:42:00,
2013-05-29 19:53:00,77.0,67.0,30.18,ENE,70,2.0,9.0,71,0.00,,,0.00,,2013-05-29 23:53:00,
2013-05-29 20:01:00,76.0,67.0,30.17,East,94,3.0,6.0,74,0.00,,,0.00,,2013-05-30 00:01:00,
2013-05-29 20:11:00,76.0,67.0,30.17,East,94,3.0,6.0,74,0.00,,,0.00,,2013-05-30 00:11:00,
2013-05-29 20:22:00,76.0,67.0,30.17,East,98,1.0,6.0,75,0.00,,,0.00,,2013-05-30 00:22:00,
2013-05-29 20:32:00,75.0,68.0,30.18,ESE,118,1.0,4.0,78,0.00,,,0.00,,2013-05-30 00:32:00,
2013-05-29 20:42:00,75.0,68.0,30.18,ESE,118,1.0,4.0,78,0.00,,,0.00,,2013-05-30 00:42:00,
2013-05-29 20:52:00,74.0,67.0,30.18,East,93,1.0,3.0,80,0.00,,,0.00,,2013-05-30 00:52:00,
2013-05-29 21:01:00,74.0,68.0,30.19,ESE,115,2.0,4.0,81,0.00,,,0.00,,2013-05-30 01:01:00,
2013-05-29 21:11:00,74.0,68.0,30.19,ESE,115,2.0,4.0,81,0.00,,,0.00,,2013-05-30 01:11:00,
2013-05-29 21:22:00,73.0,67.0,30.18,East,84,1.0,2.0,82,0.00,,,0.00,,2013-05-30 01:22:00,
2013-05-29 21:32:00,73.0,67.0,30.18,East,84,1.0,2.0,82,0.00,,,0.00,,2013-05-30 01:32:00,
2013-05-29 21:42:00,73.0,67.0,30.18,East,84,1.0,2.0,82,0.00,,,0.00,,2013-05-30 01:42:00,
2013-05-29 21:52:00,72.0,67.0,30.19,ESE,107,0.0,1.0,85,0.00,,,0.00,,2013-05-30 01:52:00,
2013-05-29 22:01:00,71.0,67.0,30.19,ESE,108,0.0,1.0,86,0.00,,,0.00,,2013-05-30 02:01:00,
2013-05-29 22:11:00,71.0,67.0,30.19,ESE,108,0.0,1.0,86,0.00,,,0.00,,2013-05-30 02:11:00,
2013-05-29 22:21:00,69.0,66.0,30.19,ESE,108,0.0,1.0,90,0.00,,,0.00,,2013-05-30 02:21:00,
2013-05-29 22:32:00,69.0,66.0,30.20,ESE,108,0.0,0.0,91,0.00,,,0.00,,2013-05-30 02:32:00,
2013-05-29 22:42:00,69.0,66.0,30.20,ESE,108,0.0,0.0,91,0.00,,,0.00,,2013-05-30 02:42:00,
2013-05-29 22:52:00,69.0,66.0,30.20,ESE,108,0.0,0.0,91,0.00,,,0.00,,2013-05-30 02:52:00,
2013-05-29 23:02:00,68.0,66.0,30.21,ESE,108,0.0,0.0,93,0.00,,,0.00,,2013-05-30 03:02:00,
2013-05-29 23:11:00,68.0,66.0,30.21,ESE,107,0.0,1.0,93,0.00,,,0.00,,2013-05-30 03:11:00,
2013-05-29 23:21:00,68.0,66.0,30.21,ESE,107,0.0,1.0,93,0.00,,,0.00,,2013-05-30 03:21:00,
2013-05-29 23:33:00,67.0,65.0,30.21,ESE,108,0.0,1.0,94,0.00,,,0.00,,2013-05-30 03:33:00,
2013-05-29 23:43:00,67.0,65.0,30.21,ESE,108,0.0,1.0,94,0.00,,,0.00,,2013-05-30 03:43:00,
2013-05-29 23:53:00,67.0,65.0,30.21,ESE,107,0.0,1.0,94,0.00,,,0.00,,2013-05-30 03:53:00,